sensor_id;sensor_type;location;lat;lon;timestamp;P1;durP1;ratioP1;P2;durP2;ratioP2
22129;SDS011;11231;50.746;4.272;2023-07-29T00:01:43;4.50;;;1.30;;
22129;SDS011;11231;50.746;4.272;2023-07-29T00:04:09;2.17;;;1.10;;
22129;SDS011;11231;50.746;4.272;2023-07-29T00:06:35;1.97;;;1.03;;
22129;SDS011;11231;50.746;4.272;2023-07-29T00:09:01;3.90;;;1.40;;
22129;SDS011;11231;50.746;4.272;2023-07-29T00:11:27;3.73;;;1.00;;
22129;SDS011;11231;50.746;4.272;2023-07-29T00:13:53;2.50;;;1.33;;
22129;SDS011;11231;50.746;4.272;2023-07-29T00:16:19;3.07;;;1.10;;
22129;SDS011;11231;50.746;4.272;2023-07-29T00:18:47;4.33;;;1.20;;
22129;SDS011;11231;50.746;4.272;2023-07-29T00:21:13;3.47;;;1.10;;
22129;SDS011;11231;50.746;4.272;2023-07-29T00:23:39;4.80;;;1.70;;
22129;SDS011;11231;50.746;4.272;2023-07-29T00:26:05;3.83;;;1.40;;
22129;SDS011;11231;50.746;4.272;2023-07-29T00:28:30;4.37;;;1.57;;
22129;SDS011;11231;50.746;4.272;2023-07-29T00:30:58;7.07;;;1.37;;
22129;SDS011;11231;50.746;4.272;2023-07-29T00:33:24;4.63;;;1.47;;
22129;SDS011;11231;50.746;4.272;2023-07-29T00:35:49;6.20;;;1.57;;
22129;SDS011;11231;50.746;4.272;2023-07-29T00:38:15;3.00;;;1.20;;
22129;SDS011;11231;50.746;4.272;2023-07-29T00:40:43;3.23;;;1.70;;
22129;SDS011;11231;50.746;4.272;2023-07-29T00:43:08;2.50;;;1.33;;
22129;SDS011;11231;50.746;4.272;2023-07-29T00:45:34;2.50;;;1.30;;
22129;SDS011;11231;50.746;4.272;2023-07-29T00:48:01;4.37;;;1.20;;
22129;SDS011;11231;50.746;4.272;2023-07-29T00:50:28;5.20;;;1.40;;
22129;SDS011;11231;50.746;4.272;2023-07-29T00:52:55;4.53;;;1.33;;
22129;SDS011;11231;50.746;4.272;2023-07-29T00:55:22;3.30;;;1.60;;
22129;SDS011;11231;50.746;4.272;2023-07-29T00:57:48;5.90;;;1.53;;
22129;SDS011;11231;50.746;4.272;2023-07-29T01:00:16;4.00;;;1.47;;
22129;SDS011;11231;50.746;4.272;2023-07-29T01:02:43;5.87;;;1.80;;
22129;SDS011;11231;50.746;4.272;2023-07-29T01:05:09;3.30;;;1.20;;
22129;SDS011;11231;50.746;4.272;2023-07-29T01:08:25;5.17;;;1.43;;
22129;SDS011;11231;50.746;4.272;2023-07-29T01:10:40;2.87;;;1.20;;
22129;SDS011;11231;50.746;4.272;2023-07-29T01:13:37;5.03;;;1.47;;
22129;SDS011;11231;50.746;4.272;2023-07-29T01:16:52;7.87;;;1.67;;
22129;SDS011;11231;50.746;4.272;2023-07-29T01:19:08;5.03;;;1.63;;
22129;SDS011;11231;50.746;4.272;2023-07-29T01:21:51;3.40;;;1.60;;
22129;SDS011;11231;50.746;4.272;2023-07-29T01:24:17;5.83;;;1.73;;
22129;SDS011;11231;50.746;4.272;2023-07-29T01:26:42;5.67;;;1.60;;
22129;SDS011;11231;50.746;4.272;2023-07-29T01:29:09;5.70;;;1.43;;
22129;SDS011;11231;50.746;4.272;2023-07-29T01:31:36;5.90;;;1.67;;
22129;SDS011;11231;50.746;4.272;2023-07-29T01:34:13;3.97;;;1.73;;
22129;SDS011;11231;50.746;4.272;2023-07-29T01:36:44;5.43;;;1.57;;
22129;SDS011;11231;50.746;4.272;2023-07-29T01:39:11;5.53;;;1.60;;
22129;SDS011;11231;50.746;4.272;2023-07-29T01:41:39;3.47;;;1.67;;
22129;SDS011;11231;50.746;4.272;2023-07-29T01:44:07;4.70;;;1.73;;
22129;SDS011;11231;50.746;4.272;2023-07-29T01:46:33;4.03;;;1.60;;
22129;SDS011;11231;50.746;4.272;2023-07-29T01:48:59;6.77;;;1.80;;
22129;SDS011;11231;50.746;4.272;2023-07-29T01:51:25;2.90;;;1.50;;
22129;SDS011;11231;50.746;4.272;2023-07-29T01:53:51;5.23;;;1.97;;
22129;SDS011;11231;50.746;4.272;2023-07-29T01:56:16;5.90;;;1.60;;
22129;SDS011;11231;50.746;4.272;2023-07-29T01:58:50;6.97;;;1.53;;
22129;SDS011;11231;50.746;4.272;2023-07-29T02:01:16;5.40;;;1.83;;
22129;SDS011;11231;50.746;4.272;2023-07-29T02:03:41;4.83;;;1.70;;
22129;SDS011;11231;50.746;4.272;2023-07-29T02:06:07;5.70;;;1.60;;
22129;SDS011;11231;50.746;4.272;2023-07-29T02:08:33;7.43;;;1.90;;
22129;SDS011;11231;50.746;4.272;2023-07-29T02:10:59;4.77;;;2.10;;
22129;SDS011;11231;50.746;4.272;2023-07-29T02:13:25;7.90;;;1.90;;
22129;SDS011;11231;50.746;4.272;2023-07-29T02:15:50;4.33;;;2.00;;
22129;SDS011;11231;50.746;4.272;2023-07-29T02:18:17;6.83;;;2.30;;
22129;SDS011;11231;50.746;4.272;2023-07-29T02:20:42;5.60;;;2.13;;
22129;SDS011;11231;50.746;4.272;2023-07-29T02:23:14;5.37;;;1.90;;
22129;SDS011;11231;50.746;4.272;2023-07-29T02:25:42;4.40;;;2.00;;
22129;SDS011;11231;50.746;4.272;2023-07-29T02:28:08;5.03;;;2.13;;
22129;SDS011;11231;50.746;4.272;2023-07-29T02:30:33;5.93;;;2.30;;
22129;SDS011;11231;50.746;4.272;2023-07-29T02:32:59;5.67;;;1.93;;
22129;SDS011;11231;50.746;4.272;2023-07-29T02:35:26;4.50;;;1.83;;
22129;SDS011;11231;50.746;4.272;2023-07-29T02:37:53;4.43;;;1.93;;
22129;SDS011;11231;50.746;4.272;2023-07-29T02:40:20;4.10;;;2.00;;
22129;SDS011;11231;50.746;4.272;2023-07-29T02:42:47;6.57;;;2.10;;
22129;SDS011;11231;50.746;4.272;2023-07-29T02:45:13;5.10;;;1.90;;
22129;SDS011;11231;50.746;4.272;2023-07-29T02:47:39;6.23;;;2.10;;
22129;SDS011;11231;50.746;4.272;2023-07-29T02:50:05;5.20;;;1.90;;
22129;SDS011;11231;50.746;4.272;2023-07-29T02:52:31;5.03;;;2.20;;
22129;SDS011;11231;50.746;4.272;2023-07-29T02:54:57;7.30;;;1.87;;
22129;SDS011;11231;50.746;4.272;2023-07-29T02:57:22;5.40;;;2.00;;
22129;SDS011;11231;50.746;4.272;2023-07-29T02:59:48;5.97;;;2.20;;
22129;SDS011;11231;50.746;4.272;2023-07-29T03:02:14;6.00;;;2.20;;
22129;SDS011;11231;50.746;4.272;2023-07-29T03:04:41;4.10;;;1.93;;
22129;SDS011;11231;50.746;4.272;2023-07-29T03:07:07;4.37;;;1.97;;
22129;SDS011;11231;50.746;4.272;2023-07-29T03:09:33;7.13;;;2.30;;
22129;SDS011;11231;50.746;4.272;2023-07-29T03:12:02;3.97;;;2.00;;
22129;SDS011;11231;50.746;4.272;2023-07-29T03:14:28;3.97;;;2.03;;
22129;SDS011;11231;50.746;4.272;2023-07-29T03:16:53;6.57;;;2.00;;
22129;SDS011;11231;50.746;4.272;2023-07-29T03:19:19;5.37;;;2.10;;
22129;SDS011;11231;50.746;4.272;2023-07-29T03:21:46;7.03;;;2.23;;
22129;SDS011;11231;50.746;4.272;2023-07-29T03:24:11;5.17;;;1.80;;
22129;SDS011;11231;50.746;4.272;2023-07-29T03:26:37;7.13;;;2.03;;
22129;SDS011;11231;50.746;4.272;2023-07-29T03:29:03;7.80;;;2.33;;
22129;SDS011;11231;50.746;4.272;2023-07-29T03:31:29;4.67;;;2.03;;
22129;SDS011;11231;50.746;4.272;2023-07-29T03:33:55;7.93;;;2.30;;
22129;SDS011;11231;50.746;4.272;2023-07-29T03:36:21;7.97;;;2.40;;
22129;SDS011;11231;50.746;4.272;2023-07-29T03:38:47;6.23;;;2.20;;
22129;SDS011;11231;50.746;4.272;2023-07-29T03:41:12;6.03;;;2.47;;
22129;SDS011;11231;50.746;4.272;2023-07-29T03:43:38;5.03;;;2.10;;
22129;SDS011;11231;50.746;4.272;2023-07-29T03:46:04;6.90;;;2.13;;
22129;SDS011;11231;50.746;4.272;2023-07-29T03:48:31;4.53;;;2.10;;
22129;SDS011;11231;50.746;4.272;2023-07-29T03:50:57;5.23;;;2.47;;
22129;SDS011;11231;50.746;4.272;2023-07-29T03:53:22;7.47;;;2.20;;
22129;SDS011;11231;50.746;4.272;2023-07-29T03:55:48;6.23;;;2.20;;
22129;SDS011;11231;50.746;4.272;2023-07-29T03:58:15;6.87;;;2.40;;
22129;SDS011;11231;50.746;4.272;2023-07-29T04:00:41;4.13;;;1.80;;
22129;SDS011;11231;50.746;4.272;2023-07-29T04:03:06;6.23;;;2.20;;
22129;SDS011;11231;50.746;4.272;2023-07-29T04:05:33;2.73;;;1.80;;
22129;SDS011;11231;50.746;4.272;2023-07-29T04:07:59;3.33;;;2.00;;
22129;SDS011;11231;50.746;4.272;2023-07-29T04:10:25;6.70;;;2.23;;
22129;SDS011;11231;50.746;4.272;2023-07-29T04:12:50;4.80;;;1.93;;
22129;SDS011;11231;50.746;4.272;2023-07-29T04:15:16;7.20;;;2.20;;
22129;SDS011;11231;50.746;4.272;2023-07-29T04:17:42;5.47;;;2.07;;
22129;SDS011;11231;50.746;4.272;2023-07-29T04:20:08;5.43;;;2.03;;
22129;SDS011;11231;50.746;4.272;2023-07-29T04:22:35;3.33;;;1.80;;
22129;SDS011;11231;50.746;4.272;2023-07-29T04:25:00;7.17;;;1.90;;
22129;SDS011;11231;50.746;4.272;2023-07-29T04:27:26;6.20;;;2.10;;
22129;SDS011;11231;50.746;4.272;2023-07-29T04:29:52;4.43;;;1.77;;
22129;SDS011;11231;50.746;4.272;2023-07-29T04:32:18;6.77;;;1.97;;
22129;SDS011;11231;50.746;4.272;2023-07-29T04:34:43;7.43;;;2.20;;
22129;SDS011;11231;50.746;4.272;2023-07-29T04:37:09;3.87;;;1.83;;
22129;SDS011;11231;50.746;4.272;2023-07-29T04:39:35;5.13;;;2.07;;
22129;SDS011;11231;50.746;4.272;2023-07-29T04:42:00;5.40;;;2.00;;
22129;SDS011;11231;50.746;4.272;2023-07-29T04:44:26;5.67;;;2.10;;
22129;SDS011;11231;50.746;4.272;2023-07-29T04:46:52;6.07;;;1.87;;
22129;SDS011;11231;50.746;4.272;2023-07-29T04:49:17;4.50;;;1.80;;
22129;SDS011;11231;50.746;4.272;2023-07-29T04:51:43;7.10;;;2.07;;
22129;SDS011;11231;50.746;4.272;2023-07-29T04:54:09;7.03;;;1.90;;
22129;SDS011;11231;50.746;4.272;2023-07-29T04:56:35;7.67;;;2.10;;
22129;SDS011;11231;50.746;4.272;2023-07-29T04:59:01;6.43;;;1.83;;
22129;SDS011;11231;50.746;4.272;2023-07-29T05:01:26;6.50;;;1.80;;
22129;SDS011;11231;50.746;4.272;2023-07-29T05:03:52;6.00;;;1.60;;
22129;SDS011;11231;50.746;4.272;2023-07-29T05:06:18;5.93;;;1.77;;
22129;SDS011;11231;50.746;4.272;2023-07-29T05:08:44;4.93;;;1.60;;
22129;SDS011;11231;50.746;4.272;2023-07-29T05:11:09;8.63;;;1.90;;
22129;SDS011;11231;50.746;4.272;2023-07-29T05:13:35;6.77;;;1.80;;
22129;SDS011;11231;50.746;4.272;2023-07-29T05:16:02;5.30;;;2.00;;
22129;SDS011;11231;50.746;4.272;2023-07-29T05:18:28;5.23;;;1.27;;
22129;SDS011;11231;50.746;4.272;2023-07-29T05:20:54;3.77;;;1.40;;
22129;SDS011;11231;50.746;4.272;2023-07-29T05:23:19;3.43;;;1.30;;
22129;SDS011;11231;50.746;4.272;2023-07-29T05:25:45;3.80;;;1.50;;
22129;SDS011;11231;50.746;4.272;2023-07-29T05:28:11;4.97;;;1.27;;
22129;SDS011;11231;50.746;4.272;2023-07-29T05:30:37;8.03;;;1.40;;
22129;SDS011;11231;50.746;4.272;2023-07-29T05:33:05;3.73;;;1.00;;
22129;SDS011;11231;50.746;4.272;2023-07-29T05:35:33;6.03;;;1.43;;
22129;SDS011;11231;50.746;4.272;2023-07-29T05:37:59;6.23;;;1.13;;
22129;SDS011;11231;50.746;4.272;2023-07-29T05:40:25;5.00;;;1.40;;
22129;SDS011;11231;50.746;4.272;2023-07-29T05:42:51;4.87;;;1.20;;
22129;SDS011;11231;50.746;4.272;2023-07-29T05:45:17;5.73;;;1.20;;
22129;SDS011;11231;50.746;4.272;2023-07-29T05:47:43;4.80;;;1.20;;
22129;SDS011;11231;50.746;4.272;2023-07-29T05:50:09;2.73;;;1.27;;
22129;SDS011;11231;50.746;4.272;2023-07-29T05:52:35;2.10;;;1.03;;
22129;SDS011;11231;50.746;4.272;2023-07-29T05:55:00;3.40;;;1.17;;
22129;SDS011;11231;50.746;4.272;2023-07-29T05:57:26;5.17;;;1.30;;
22129;SDS011;11231;50.746;4.272;2023-07-29T05:59:53;5.40;;;1.20;;
22129;SDS011;11231;50.746;4.272;2023-07-29T06:02:19;3.07;;;1.27;;
22129;SDS011;11231;50.746;4.272;2023-07-29T06:04:45;3.43;;;1.37;;
22129;SDS011;11231;50.746;4.272;2023-07-29T06:07:10;3.90;;;1.33;;
22129;SDS011;11231;50.746;4.272;2023-07-29T06:09:36;4.23;;;1.37;;
22129;SDS011;11231;50.746;4.272;2023-07-29T06:12:02;4.17;;;1.40;;
22129;SDS011;11231;50.746;4.272;2023-07-29T06:14:28;3.93;;;1.20;;
22129;SDS011;11231;50.746;4.272;2023-07-29T06:16:53;6.03;;;1.33;;
22129;SDS011;11231;50.746;4.272;2023-07-29T06:19:20;10.33;;;2.30;;
22129;SDS011;11231;50.746;4.272;2023-07-29T06:21:45;3.53;;;1.10;;
22129;SDS011;11231;50.746;4.272;2023-07-29T06:24:11;2.40;;;1.13;;
22129;SDS011;11231;50.746;4.272;2023-07-29T06:26:37;7.13;;;1.40;;
22129;SDS011;11231;50.746;4.272;2023-07-29T06:29:03;4.00;;;1.27;;
22129;SDS011;11231;50.746;4.272;2023-07-29T06:31:29;3.30;;;1.10;;
22129;SDS011;11231;50.746;4.272;2023-07-29T06:33:55;2.27;;;1.10;;
22129;SDS011;11231;50.746;4.272;2023-07-29T06:36:20;3.23;;;1.10;;
22129;SDS011;11231;50.746;4.272;2023-07-29T06:38:46;4.93;;;1.00;;
22129;SDS011;11231;50.746;4.272;2023-07-29T06:41:12;3.00;;;1.17;;
22129;SDS011;11231;50.746;4.272;2023-07-29T06:43:38;5.80;;;1.50;;
22129;SDS011;11231;50.746;4.272;2023-07-29T06:46:03;5.50;;;1.20;;
22129;SDS011;11231;50.746;4.272;2023-07-29T06:48:29;5.40;;;1.20;;
22129;SDS011;11231;50.746;4.272;2023-07-29T06:50:55;4.27;;;1.20;;
22129;SDS011;11231;50.746;4.272;2023-07-29T06:53:25;5.73;;;1.30;;
22129;SDS011;11231;50.746;4.272;2023-07-29T06:55:54;2.73;;;1.27;;
22129;SDS011;11231;50.746;4.272;2023-07-29T06:58:19;5.43;;;1.30;;
22129;SDS011;11231;50.746;4.272;2023-07-29T07:00:46;3.47;;;1.30;;
22129;SDS011;11231;50.746;4.272;2023-07-29T07:03:11;5.60;;;1.30;;
22129;SDS011;11231;50.746;4.272;2023-07-29T07:05:37;3.70;;;1.40;;
22129;SDS011;11231;50.746;4.272;2023-07-29T07:08:03;5.90;;;1.63;;
22129;SDS011;11231;50.746;4.272;2023-07-29T07:10:29;5.37;;;1.33;;
22129;SDS011;11231;50.746;4.272;2023-07-29T07:12:54;4.53;;;1.60;;
22129;SDS011;11231;50.746;4.272;2023-07-29T07:15:20;4.40;;;1.10;;
22129;SDS011;11231;50.746;4.272;2023-07-29T07:17:46;3.77;;;1.20;;
22129;SDS011;11231;50.746;4.272;2023-07-29T07:20:11;5.33;;;1.20;;
22129;SDS011;11231;50.746;4.272;2023-07-29T07:22:37;2.53;;;1.07;;
22129;SDS011;11231;50.746;4.272;2023-07-29T07:25:04;3.73;;;1.30;;
22129;SDS011;11231;50.746;4.272;2023-07-29T07:27:30;4.07;;;1.30;;
22129;SDS011;11231;50.746;4.272;2023-07-29T07:29:55;2.30;;;1.27;;
22129;SDS011;11231;50.746;4.272;2023-07-29T07:32:21;4.17;;;1.30;;
22129;SDS011;11231;50.746;4.272;2023-07-29T07:34:47;4.03;;;1.43;;
22129;SDS011;11231;50.746;4.272;2023-07-29T07:37:12;5.37;;;1.40;;
22129;SDS011;11231;50.746;4.272;2023-07-29T07:39:38;6.00;;;1.30;;
22129;SDS011;11231;50.746;4.272;2023-07-29T07:42:04;4.17;;;1.40;;
22129;SDS011;11231;50.746;4.272;2023-07-29T07:44:30;2.33;;;1.20;;
22129;SDS011;11231;50.746;4.272;2023-07-29T07:46:56;3.97;;;1.30;;
22129;SDS011;11231;50.746;4.272;2023-07-29T07:49:22;5.17;;;1.10;;
22129;SDS011;11231;50.746;4.272;2023-07-29T07:51:48;3.47;;;1.13;;
22129;SDS011;11231;50.746;4.272;2023-07-29T07:54:13;4.60;;;1.43;;
22129;SDS011;11231;50.746;4.272;2023-07-29T07:56:39;3.30;;;1.27;;
22129;SDS011;11231;50.746;4.272;2023-07-29T07:59:05;4.33;;;1.20;;
22129;SDS011;11231;50.746;4.272;2023-07-29T08:01:34;4.30;;;1.20;;
22129;SDS011;11231;50.746;4.272;2023-07-29T08:04:01;3.63;;;1.20;;
22129;SDS011;11231;50.746;4.272;2023-07-29T08:06:26;3.58;;;1.10;;
22129;SDS011;11231;50.746;4.272;2023-07-29T08:08:52;3.30;;;0.80;;
22129;SDS011;11231;50.746;4.272;2023-07-29T08:11:18;3.03;;;0.98;;
22129;SDS011;11231;50.746;4.272;2023-07-29T08:13:43;3.00;;;0.90;;
22129;SDS011;11231;50.746;4.272;2023-07-29T08:16:09;5.20;;;1.10;;
22129;SDS011;11231;50.746;4.272;2023-07-29T08:18:35;7.43;;;1.00;;
22129;SDS011;11231;50.746;4.272;2023-07-29T08:21:01;3.63;;;0.90;;
22129;SDS011;11231;50.746;4.272;2023-07-29T08:23:28;3.50;;;1.13;;
22129;SDS011;11231;50.746;4.272;2023-07-29T08:25:55;1.83;;;1.00;;
22129;SDS011;11231;50.746;4.272;2023-07-29T08:28:26;2.97;;;1.17;;
22129;SDS011;11231;50.746;4.272;2023-07-29T08:31:10;4.05;;;1.38;;
22129;SDS011;11231;50.746;4.272;2023-07-29T08:33:36;1.75;;;0.93;;
22129;SDS011;11231;50.746;4.272;2023-07-29T08:36:02;2.28;;;1.05;;
22129;SDS011;11231;50.746;4.272;2023-07-29T08:38:28;2.75;;;1.00;;
22129;SDS011;11231;50.746;4.272;2023-07-29T08:40:58;4.35;;;1.15;;
22129;SDS011;11231;50.746;4.272;2023-07-29T08:43:31;3.58;;;1.00;;
22129;SDS011;11231;50.746;4.272;2023-07-29T08:46:00;2.45;;;1.10;;
22129;SDS011;11231;50.746;4.272;2023-07-29T08:48:29;3.35;;;1.00;;
22129;SDS011;11231;50.746;4.272;2023-07-29T08:51:08;2.63;;;0.95;;
22129;SDS011;11231;50.746;4.272;2023-07-29T08:53:35;4.25;;;1.10;;
22129;SDS011;11231;50.746;4.272;2023-07-29T08:56:02;3.05;;;0.88;;
22129;SDS011;11231;50.746;4.272;2023-07-29T08:58:28;2.40;;;1.10;;
22129;SDS011;11231;50.746;4.272;2023-07-29T09:00:54;3.97;;;1.08;;
22129;SDS011;11231;50.746;4.272;2023-07-29T09:03:20;2.42;;;0.93;;
22129;SDS011;11231;50.746;4.272;2023-07-29T09:05:47;1.33;;;0.90;;
22129;SDS011;11231;50.746;4.272;2023-07-29T09:08:13;2.13;;;0.90;;
22129;SDS011;11231;50.746;4.272;2023-07-29T09:10:39;9.82;;;1.88;;
22129;SDS011;11231;50.746;4.272;2023-07-29T09:13:05;3.67;;;1.20;;
22129;SDS011;11231;50.746;4.272;2023-07-29T09:15:33;2.05;;;1.10;;
22129;SDS011;11231;50.746;4.272;2023-07-29T09:18:08;2.42;;;1.15;;
22129;SDS011;11231;50.746;4.272;2023-07-29T09:20:35;4.63;;;1.35;;
22129;SDS011;11231;50.746;4.272;2023-07-29T09:23:01;3.15;;;1.33;;
22129;SDS011;11231;50.746;4.272;2023-07-29T09:25:28;2.30;;;1.05;;
22129;SDS011;11231;50.746;4.272;2023-07-29T09:28:00;4.70;;;1.50;;
22129;SDS011;11231;50.746;4.272;2023-07-29T09:30:27;2.40;;;1.13;;
22129;SDS011;11231;50.746;4.272;2023-07-29T09:32:56;4.25;;;1.30;;
22129;SDS011;11231;50.746;4.272;2023-07-29T09:35:23;2.42;;;1.10;;
22129;SDS011;11231;50.746;4.272;2023-07-29T09:37:50;2.95;;;1.27;;
22129;SDS011;11231;50.746;4.272;2023-07-29T09:40:17;2.38;;;1.02;;
22129;SDS011;11231;50.746;4.272;2023-07-29T09:42:55;4.60;;;1.48;;
22129;SDS011;11231;50.746;4.272;2023-07-29T09:45:22;3.75;;;1.30;;
22129;SDS011;11231;50.746;4.272;2023-07-29T09:47:48;2.63;;;1.40;;
22129;SDS011;11231;50.746;4.272;2023-07-29T09:50:14;2.88;;;1.20;;
22129;SDS011;11231;50.746;4.272;2023-07-29T09:52:41;2.20;;;1.10;;
22129;SDS011;11231;50.746;4.272;2023-07-29T09:55:07;4.85;;;1.52;;
22129;SDS011;11231;50.746;4.272;2023-07-29T09:57:36;1.90;;;1.00;;
22129;SDS011;11231;50.746;4.272;2023-07-29T10:00:04;3.28;;;1.00;;
22129;SDS011;11231;50.746;4.272;2023-07-29T10:02:36;3.28;;;1.30;;
22129;SDS011;11231;50.746;4.272;2023-07-29T10:05:03;3.25;;;1.75;;
22129;SDS011;11231;50.746;4.272;2023-07-29T10:07:29;3.30;;;1.63;;
22129;SDS011;11231;50.746;4.272;2023-07-29T10:09:56;3.20;;;1.40;;
22129;SDS011;11231;50.746;4.272;2023-07-29T10:12:24;3.85;;;1.48;;
22129;SDS011;11231;50.746;4.272;2023-07-29T10:14:50;3.72;;;1.60;;
22129;SDS011;11231;50.746;4.272;2023-07-29T10:17:16;5.32;;;1.35;;
22129;SDS011;11231;50.746;4.272;2023-07-29T10:19:41;5.53;;;1.58;;
22129;SDS011;11231;50.746;4.272;2023-07-29T10:22:09;3.90;;;1.50;;
22129;SDS011;11231;50.746;4.272;2023-07-29T10:24:38;4.43;;;1.50;;
22129;SDS011;11231;50.746;4.272;2023-07-29T10:27:07;3.53;;;1.40;;
22129;SDS011;11231;50.746;4.272;2023-07-29T10:29:38;2.95;;;1.40;;
22129;SDS011;11231;50.746;4.272;2023-07-29T10:32:06;3.38;;;1.33;;
22129;SDS011;11231;50.746;4.272;2023-07-29T10:34:33;3.75;;;1.38;;
22129;SDS011;11231;50.746;4.272;2023-07-29T10:37:00;3.47;;;1.60;;
22129;SDS011;11231;50.746;4.272;2023-07-29T10:39:26;3.72;;;1.33;;
22129;SDS011;11231;50.746;4.272;2023-07-29T10:41:59;3.50;;;1.60;;
22129;SDS011;11231;50.746;4.272;2023-07-29T10:47:17;5.50;;;2.15;;
22129;SDS011;11231;50.746;4.272;2023-07-29T10:49:44;5.63;;;2.28;;
22129;SDS011;11231;50.746;4.272;2023-07-29T10:52:15;4.43;;;2.00;;
22129;SDS011;11231;50.746;4.272;2023-07-29T10:54:42;4.38;;;2.35;;
22129;SDS011;11231;50.746;4.272;2023-07-29T10:57:08;4.90;;;2.70;;
22129;SDS011;11231;50.746;4.272;2023-07-29T10:59:41;6.40;;;2.70;;
22129;SDS011;11231;50.746;4.272;2023-07-29T11:02:19;5.43;;;2.40;;
22129;SDS011;11231;50.746;4.272;2023-07-29T11:04:49;4.50;;;2.17;;
22129;SDS011;11231;50.746;4.272;2023-07-29T11:15:03;3.57;;;1.97;;
22129;SDS011;11231;50.746;4.272;2023-07-29T11:17:35;6.10;;;2.03;;
22129;SDS011;11231;50.746;4.272;2023-07-29T11:20:06;4.33;;;1.80;;
22129;SDS011;11231;50.746;4.272;2023-07-29T11:22:33;3.27;;;1.90;;
22129;SDS011;11231;50.746;4.272;2023-07-29T11:25:00;4.60;;;2.00;;
22129;SDS011;11231;50.746;4.272;2023-07-29T11:27:25;4.77;;;2.10;;
22129;SDS011;11231;50.746;4.272;2023-07-29T11:29:58;4.87;;;1.90;;
22129;SDS011;11231;50.746;4.272;2023-07-29T11:32:30;4.70;;;2.00;;
22129;SDS011;11231;50.746;4.272;2023-07-29T11:34:56;4.23;;;2.00;;
22129;SDS011;11231;50.746;4.272;2023-07-29T11:37:22;4.57;;;2.23;;
22129;SDS011;11231;50.746;4.272;2023-07-29T11:39:48;3.90;;;1.60;;
22129;SDS011;11231;50.746;4.272;2023-07-29T11:42:14;3.15;;;1.70;;
22129;SDS011;11231;50.746;4.272;2023-07-29T11:44:40;3.83;;;1.50;;
22129;SDS011;11231;50.746;4.272;2023-07-29T11:47:10;2.33;;;1.48;;
22129;SDS011;11231;50.746;4.272;2023-07-29T11:49:38;2.45;;;1.48;;
22129;SDS011;11231;50.746;4.272;2023-07-29T11:52:08;3.38;;;1.48;;
22129;SDS011;11231;50.746;4.272;2023-07-29T11:54:35;4.05;;;1.67;;
22129;SDS011;11231;50.746;4.272;2023-07-29T11:57:03;2.13;;;1.50;;
22129;SDS011;11231;50.746;4.272;2023-07-29T11:59:36;2.10;;;1.60;;
22129;SDS011;11231;50.746;4.272;2023-07-29T12:02:06;3.22;;;1.70;;
22129;SDS011;11231;50.746;4.272;2023-07-29T12:04:36;3.88;;;1.60;;
22129;SDS011;11231;50.746;4.272;2023-07-29T12:07:04;3.33;;;1.70;;
22129;SDS011;11231;50.746;4.272;2023-07-29T12:09:30;5.72;;;1.73;;
22129;SDS011;11231;50.746;4.272;2023-07-29T12:11:56;3.78;;;1.63;;
22129;SDS011;11231;50.746;4.272;2023-07-29T12:14:22;3.85;;;1.73;;
22129;SDS011;11231;50.746;4.272;2023-07-29T12:16:51;9.98;;;3.28;;
22129;SDS011;11231;50.746;4.272;2023-07-29T12:19:18;8.18;;;2.33;;
22129;SDS011;11231;50.746;4.272;2023-07-29T12:21:47;11.95;;;2.83;;
22129;SDS011;11231;50.746;4.272;2023-07-29T12:24:13;5.78;;;2.13;;
22129;SDS011;11231;50.746;4.272;2023-07-29T12:26:40;7.07;;;2.13;;
22129;SDS011;11231;50.746;4.272;2023-07-29T12:29:16;3.93;;;2.00;;
22129;SDS011;11231;50.746;4.272;2023-07-29T12:31:46;5.57;;;2.30;;
22129;SDS011;11231;50.746;4.272;2023-07-29T12:34:21;4.20;;;2.47;;
22129;SDS011;11231;50.746;4.272;2023-07-29T12:36:47;4.53;;;2.30;;
22129;SDS011;11231;50.746;4.272;2023-07-29T12:39:18;6.53;;;2.30;;
22129;SDS011;11231;50.746;4.272;2023-07-29T12:41:55;4.93;;;2.30;;
22129;SDS011;11231;50.746;4.272;2023-07-29T12:44:39;6.05;;;2.05;;
22129;SDS011;11231;50.746;4.272;2023-07-29T12:47:05;4.50;;;2.35;;
22129;SDS011;11231;50.746;4.272;2023-07-29T12:49:33;3.92;;;2.20;;
22129;SDS011;11231;50.746;4.272;2023-07-29T12:51:59;5.53;;;2.27;;
22129;SDS011;11231;50.746;4.272;2023-07-29T12:54:25;4.68;;;2.20;;
22129;SDS011;11231;50.746;4.272;2023-07-29T12:56:51;3.85;;;2.13;;
22129;SDS011;11231;50.746;4.272;2023-07-29T12:59:17;4.68;;;2.55;;
22129;SDS011;11231;50.746;4.272;2023-07-29T13:01:43;3.58;;;2.42;;
22129;SDS011;11231;50.746;4.272;2023-07-29T13:04:11;5.32;;;2.20;;
22129;SDS011;11231;50.746;4.272;2023-07-29T13:06:37;5.30;;;2.55;;
22129;SDS011;11231;50.746;4.272;2023-07-29T13:09:03;4.22;;;2.55;;
22129;SDS011;11231;50.746;4.272;2023-07-29T13:11:30;3.78;;;2.25;;
22129;SDS011;11231;50.746;4.272;2023-07-29T13:13:57;4.10;;;2.00;;
22129;SDS011;11231;50.746;4.272;2023-07-29T13:16:23;3.67;;;1.42;;
22129;SDS011;11231;50.746;4.272;2023-07-29T13:18:49;1.50;;;1.25;;
22129;SDS011;11231;50.746;4.272;2023-07-29T13:21:15;3.30;;;1.20;;
22129;SDS011;11231;50.746;4.272;2023-07-29T13:23:40;2.05;;;1.30;;
22129;SDS011;11231;50.746;4.272;2023-07-29T13:26:06;1.48;;;1.00;;
22129;SDS011;11231;50.746;4.272;2023-07-29T13:28:32;3.03;;;1.30;;
22129;SDS011;11231;50.746;4.272;2023-07-29T13:30:58;1.77;;;1.13;;
22129;SDS011;11231;50.746;4.272;2023-07-29T13:33:23;3.38;;;1.27;;
22129;SDS011;11231;50.746;4.272;2023-07-29T13:35:49;2.42;;;1.25;;
22129;SDS011;11231;50.746;4.272;2023-07-29T13:38:15;3.42;;;1.20;;
22129;SDS011;11231;50.746;4.272;2023-07-29T13:40:41;3.60;;;1.48;;
22129;SDS011;11231;50.746;4.272;2023-07-29T13:43:07;3.45;;;1.27;;
22129;SDS011;11231;50.746;4.272;2023-07-29T13:45:34;2.10;;;1.10;;
22129;SDS011;11231;50.746;4.272;2023-07-29T13:48:00;1.90;;;1.38;;
22129;SDS011;11231;50.746;4.272;2023-07-29T13:50:25;1.60;;;1.10;;
22129;SDS011;11231;50.746;4.272;2023-07-29T13:52:51;2.13;;;1.30;;
22129;SDS011;11231;50.746;4.272;2023-07-29T13:55:17;1.50;;;1.10;;
22129;SDS011;11231;50.746;4.272;2023-07-29T13:57:42;2.42;;;1.10;;
22129;SDS011;11231;50.746;4.272;2023-07-29T14:00:08;3.45;;;1.20;;
22129;SDS011;11231;50.746;4.272;2023-07-29T14:02:37;2.85;;;1.05;;
22129;SDS011;11231;50.746;4.272;2023-07-29T14:05:02;2.03;;;1.00;;
22129;SDS011;11231;50.746;4.272;2023-07-29T14:07:28;1.95;;;1.00;;
22129;SDS011;11231;50.746;4.272;2023-07-29T14:09:54;1.50;;;0.95;;
22129;SDS011;11231;50.746;4.272;2023-07-29T14:12:20;2.05;;;1.02;;
22129;SDS011;11231;50.746;4.272;2023-07-29T14:14:45;2.00;;;1.00;;
22129;SDS011;11231;50.746;4.272;2023-07-29T14:17:11;1.25;;;0.90;;
22129;SDS011;11231;50.746;4.272;2023-07-29T14:19:37;2.85;;;1.00;;
22129;SDS011;11231;50.746;4.272;2023-07-29T14:22:03;3.80;;;0.90;;
22129;SDS011;11231;50.746;4.272;2023-07-29T14:24:29;1.90;;;1.10;;
22129;SDS011;11231;50.746;4.272;2023-07-29T14:26:55;2.28;;;1.00;;
22129;SDS011;11231;50.746;4.272;2023-07-29T14:29:20;1.92;;;1.00;;
22129;SDS011;11231;50.746;4.272;2023-07-29T14:31:46;1.77;;;1.17;;
22129;SDS011;11231;50.746;4.272;2023-07-29T14:34:12;1.33;;;0.90;;
22129;SDS011;11231;50.746;4.272;2023-07-29T14:36:37;3.20;;;1.13;;
22129;SDS011;11231;50.746;4.272;2023-07-29T14:39:03;1.95;;;1.20;;
22129;SDS011;11231;50.746;4.272;2023-07-29T14:41:29;4.15;;;1.20;;
22129;SDS011;11231;50.746;4.272;2023-07-29T14:43:56;1.83;;;1.00;;
22129;SDS011;11231;50.746;4.272;2023-07-29T14:46:21;2.95;;;1.17;;
22129;SDS011;11231;50.746;4.272;2023-07-29T14:48:47;2.92;;;1.30;;
22129;SDS011;11231;50.746;4.272;2023-07-29T14:51:13;4.43;;;1.27;;
22129;SDS011;11231;50.746;4.272;2023-07-29T14:53:39;2.08;;;1.10;;
22129;SDS011;11231;50.746;4.272;2023-07-29T14:56:05;1.60;;;0.98;;
22129;SDS011;11231;50.746;4.272;2023-07-29T14:58:30;2.25;;;1.05;;